sensor_id;sensor_type;location;lat;lon;timestamp;P1;durP1;ratioP1;P2;durP2;ratioP2
37945;SDS011;23769;52.478;13.448;2023-08-20T00:01:29;16.25;;;14.70;;
37945;SDS011;23769;52.478;13.448;2023-08-20T00:03:57;17.73;;;15.93;;
37945;SDS011;23769;52.478;13.448;2023-08-20T00:06:24;15.68;;;14.13;;
37945;SDS011;23769;52.478;13.448;2023-08-20T00:08:52;16.50;;;14.85;;
37945;SDS011;23769;52.478;13.448;2023-08-20T00:11:19;15.88;;;14.35;;
37945;SDS011;23769;52.478;13.448;2023-08-20T00:13:48;16.35;;;14.77;;
37945;SDS011;23769;52.478;13.448;2023-08-20T00:16:15;17.10;;;15.40;;
37945;SDS011;23769;52.478;13.448;2023-08-20T00:18:43;17.40;;;15.60;;
37945;SDS011;23769;52.478;13.448;2023-08-20T00:21:10;15.43;;;13.77;;
37945;SDS011;23769;52.478;13.448;2023-08-20T00:23:38;17.13;;;15.43;;
37945;SDS011;23769;52.478;13.448;2023-08-20T00:26:05;16.50;;;14.82;;
37945;SDS011;23769;52.478;13.448;2023-08-20T00:28:33;16.05;;;14.30;;
37945;SDS011;23769;52.478;13.448;2023-08-20T00:31:03;15.55;;;14.05;;
37945;SDS011;23769;52.478;13.448;2023-08-20T00:33:30;16.45;;;14.85;;
37945;SDS011;23769;52.478;13.448;2023-08-20T00:35:58;16.90;;;14.93;;
37945;SDS011;23769;52.478;13.448;2023-08-20T00:38:25;16.77;;;15.07;;
37945;SDS011;23769;52.478;13.448;2023-08-20T00:40:52;17.38;;;15.40;;
37945;SDS011;23769;52.478;13.448;2023-08-20T00:43:19;15.60;;;14.00;;
37945;SDS011;23769;52.478;13.448;2023-08-20T00:45:46;16.30;;;14.60;;
37945;SDS011;23769;52.478;13.448;2023-08-20T00:48:15;16.20;;;14.50;;
37945;SDS011;23769;52.478;13.448;2023-08-20T00:50:43;15.38;;;13.82;;
37945;SDS011;23769;52.478;13.448;2023-08-20T00:53:11;16.90;;;15.23;;
37945;SDS011;23769;52.478;13.448;2023-08-20T00:55:38;16.70;;;14.13;;
37945;SDS011;23769;52.478;13.448;2023-08-20T00:58:06;15.68;;;14.18;;
37945;SDS011;23769;52.478;13.448;2023-08-20T01:00:33;14.95;;;13.35;;
37945;SDS011;23769;52.478;13.448;2023-08-20T01:03:00;15.68;;;14.00;;
37945;SDS011;23769;52.478;13.448;2023-08-20T01:05:29;15.65;;;14.05;;
37945;SDS011;23769;52.478;13.448;2023-08-20T01:08:03;15.32;;;13.73;;
37945;SDS011;23769;52.478;13.448;2023-08-20T01:10:34;15.77;;;14.07;;
37945;SDS011;23769;52.478;13.448;2023-08-20T01:13:06;14.10;;;12.80;;
37945;SDS011;23769;52.478;13.448;2023-08-20T01:15:34;15.30;;;13.80;;
37945;SDS011;23769;52.478;13.448;2023-08-20T01:18:01;14.10;;;12.70;;
37945;SDS011;23769;52.478;13.448;2023-08-20T01:20:32;15.75;;;13.20;;
37945;SDS011;23769;52.478;13.448;2023-08-20T01:23:23;13.93;;;12.52;;
37945;SDS011;23769;52.478;13.448;2023-08-20T01:25:58;14.70;;;13.23;;
37945;SDS011;23769;52.478;13.448;2023-08-20T01:28:30;14.88;;;13.38;;
37945;SDS011;23769;52.478;13.448;2023-08-20T01:30:58;15.27;;;13.13;;
37945;SDS011;23769;52.478;13.448;2023-08-20T01:33:26;14.75;;;13.15;;
37945;SDS011;23769;52.478;13.448;2023-08-20T01:35:54;15.23;;;13.80;;
37945;SDS011;23769;52.478;13.448;2023-08-20T01:38:21;15.95;;;13.48;;
37945;SDS011;23769;52.478;13.448;2023-08-20T01:40:49;15.45;;;13.25;;
37945;SDS011;23769;52.478;13.448;2023-08-20T01:43:16;13.93;;;12.52;;
37945;SDS011;23769;52.478;13.448;2023-08-20T01:45:45;14.10;;;12.70;;
37945;SDS011;23769;52.478;13.448;2023-08-20T01:48:12;15.13;;;13.20;;
37945;SDS011;23769;52.478;13.448;2023-08-20T01:50:39;14.18;;;12.57;;
37945;SDS011;23769;52.478;13.448;2023-08-20T01:53:07;14.85;;;13.00;;
37945;SDS011;23769;52.478;13.448;2023-08-20T01:55:34;13.35;;;12.02;;
37945;SDS011;23769;52.478;13.448;2023-08-20T01:58:02;14.85;;;12.88;;
37945;SDS011;23769;52.478;13.448;2023-08-20T02:00:29;14.85;;;12.68;;
37945;SDS011;23769;52.478;13.448;2023-08-20T02:03:00;18.27;;;14.18;;
37945;SDS011;23769;52.478;13.448;2023-08-20T02:05:27;15.25;;;13.73;;
37945;SDS011;23769;52.478;13.448;2023-08-20T02:07:54;15.02;;;13.40;;
37945;SDS011;23769;52.478;13.448;2023-08-20T02:10:21;15.48;;;13.13;;
37945;SDS011;23769;52.478;13.448;2023-08-20T02:12:49;15.05;;;13.55;;
37945;SDS011;23769;52.478;13.448;2023-08-20T02:15:16;14.95;;;13.45;;
37945;SDS011;23769;52.478;13.448;2023-08-20T02:17:43;14.63;;;13.00;;
37945;SDS011;23769;52.478;13.448;2023-08-20T02:20:12;16.63;;;13.43;;
37945;SDS011;23769;52.478;13.448;2023-08-20T02:22:39;16.13;;;13.40;;
37945;SDS011;23769;52.478;13.448;2023-08-20T02:25:07;14.57;;;13.07;;
37945;SDS011;23769;52.478;13.448;2023-08-20T02:27:34;18.08;;;13.38;;
37945;SDS011;23769;52.478;13.448;2023-08-20T02:30:02;14.35;;;12.93;;
37945;SDS011;23769;52.478;13.448;2023-08-20T02:32:29;15.23;;;13.55;;
37945;SDS011;23769;52.478;13.448;2023-08-20T02:34:58;14.60;;;13.10;;
37945;SDS011;23769;52.478;13.448;2023-08-20T02:37:27;15.27;;;13.00;;
37945;SDS011;23769;52.478;13.448;2023-08-20T02:39:54;16.27;;;13.88;;
37945;SDS011;23769;52.478;13.448;2023-08-20T02:42:21;17.58;;;13.07;;
37945;SDS011;23769;52.478;13.448;2023-08-20T02:44:48;14.43;;;12.93;;
37945;SDS011;23769;52.478;13.448;2023-08-20T02:47:15;15.27;;;13.70;;
37945;SDS011;23769;52.478;13.448;2023-08-20T02:49:43;15.48;;;13.32;;
37945;SDS011;23769;52.478;13.448;2023-08-20T02:52:10;14.88;;;12.65;;
37945;SDS011;23769;52.478;13.448;2023-08-20T02:54:39;16.38;;;13.88;;
37945;SDS011;23769;52.478;13.448;2023-08-20T02:57:06;14.73;;;13.00;;
37945;SDS011;23769;52.478;13.448;2023-08-20T02:59:33;14.60;;;13.10;;
37945;SDS011;23769;52.478;13.448;2023-08-20T03:02:00;14.90;;;13.27;;
37945;SDS011;23769;52.478;13.448;2023-08-20T03:04:28;15.27;;;12.90;;
37945;SDS011;23769;52.478;13.448;2023-08-20T03:06:55;16.33;;;12.25;;
37945;SDS011;23769;52.478;13.448;2023-08-20T03:09:23;16.35;;;12.75;;
37945;SDS011;23769;52.478;13.448;2023-08-20T03:11:51;14.43;;;12.68;;
37945;SDS011;23769;52.478;13.448;2023-08-20T03:14:18;14.77;;;12.65;;
37945;SDS011;23769;52.478;13.448;2023-08-20T03:16:46;14.35;;;12.07;;
37945;SDS011;23769;52.478;13.448;2023-08-20T03:19:14;13.77;;;12.38;;
37945;SDS011;23769;52.478;13.448;2023-08-20T03:21:42;13.57;;;12.18;;
37945;SDS011;23769;52.478;13.448;2023-08-20T03:24:09;14.68;;;12.48;;
37945;SDS011;23769;52.478;13.448;2023-08-20T03:26:36;12.30;;;11.10;;
37945;SDS011;23769;52.478;13.448;2023-08-20T03:29:05;17.98;;;12.40;;
37945;SDS011;23769;52.478;13.448;2023-08-20T03:31:32;13.32;;;12.00;;
37945;SDS011;23769;52.478;13.448;2023-08-20T03:33:59;13.48;;;12.07;;
37945;SDS011;23769;52.478;13.448;2023-08-20T03:36:27;14.93;;;12.93;;
37945;SDS011;23769;52.478;13.448;2023-08-20T03:38:54;14.43;;;12.48;;
37945;SDS011;23769;52.478;13.448;2023-08-20T03:41:21;13.30;;;11.40;;
37945;SDS011;23769;52.478;13.448;2023-08-20T03:43:49;12.65;;;11.35;;
37945;SDS011;23769;52.478;13.448;2023-08-20T03:46:17;15.13;;;12.30;;
37945;SDS011;23769;52.478;13.448;2023-08-20T03:48:44;13.73;;;12.25;;
37945;SDS011;23769;52.478;13.448;2023-08-20T03:51:12;15.93;;;11.70;;
37945;SDS011;23769;52.478;13.448;2023-08-20T03:53:39;15.98;;;12.32;;
37945;SDS011;23769;52.478;13.448;2023-08-20T03:56:08;13.60;;;12.27;;
37945;SDS011;23769;52.478;13.448;2023-08-20T03:58:36;14.30;;;12.63;;
37945;SDS011;23769;52.478;13.448;2023-08-20T04:01:03;13.45;;;12.05;;
37945;SDS011;23769;52.478;13.448;2023-08-20T04:03:31;12.68;;;11.10;;
37945;SDS011;23769;52.478;13.448;2023-08-20T04:05:59;12.82;;;11.60;;
37945;SDS011;23769;52.478;13.448;2023-08-20T04:08:26;13.80;;;12.40;;
37945;SDS011;23769;52.478;13.448;2023-08-20T04:10:53;16.80;;;12.27;;
37945;SDS011;23769;52.478;13.448;2023-08-20T04:13:21;16.23;;;11.68;;
37945;SDS011;23769;52.478;13.448;2023-08-20T04:15:48;13.13;;;11.73;;
37945;SDS011;23769;52.478;13.448;2023-08-20T04:18:15;13.90;;;12.02;;
37945;SDS011;23769;52.478;13.448;2023-08-20T04:20:44;15.93;;;12.25;;
37945;SDS011;23769;52.478;13.448;2023-08-20T04:23:11;14.15;;;12.65;;
37945;SDS011;23769;52.478;13.448;2023-08-20T04:25:38;16.20;;;12.50;;
37945;SDS011;23769;52.478;13.448;2023-08-20T04:28:06;19.10;;;13.55;;
37945;SDS011;23769;52.478;13.448;2023-08-20T04:30:34;16.13;;;13.35;;
37945;SDS011;23769;52.478;13.448;2023-08-20T04:33:01;15.55;;;13.05;;
37945;SDS011;23769;52.478;13.448;2023-08-20T04:35:28;16.70;;;12.98;;
37945;SDS011;23769;52.478;13.448;2023-08-20T04:37:57;14.68;;;13.05;;
37945;SDS011;23769;52.478;13.448;2023-08-20T04:40:24;16.25;;;13.13;;
37945;SDS011;23769;52.478;13.448;2023-08-20T04:42:51;13.52;;;12.02;;
37945;SDS011;23769;52.478;13.448;2023-08-20T04:45:19;12.07;;;10.88;;
37945;SDS011;23769;52.478;13.448;2023-08-20T04:47:46;12.85;;;11.50;;
37945;SDS011;23769;52.478;13.448;2023-08-20T04:50:13;14.50;;;12.10;;
37945;SDS011;23769;52.478;13.448;2023-08-20T04:52:40;18.42;;;13.15;;
37945;SDS011;23769;52.478;13.448;2023-08-20T04:55:09;13.35;;;11.93;;
37945;SDS011;23769;52.478;13.448;2023-08-20T04:57:36;13.10;;;11.70;;
37945;SDS011;23769;52.478;13.448;2023-08-20T05:00:04;13.35;;;12.00;;
37945;SDS011;23769;52.478;13.448;2023-08-20T05:02:32;14.55;;;12.68;;
37945;SDS011;23769;52.478;13.448;2023-08-20T05:04:59;13.52;;;12.13;;
37945;SDS011;23769;52.478;13.448;2023-08-20T05:07:26;13.57;;;12.05;;
37945;SDS011;23769;52.478;13.448;2023-08-20T05:09:53;14.25;;;11.65;;
37945;SDS011;23769;52.478;13.448;2023-08-20T05:12:22;12.90;;;10.88;;
37945;SDS011;23769;52.478;13.448;2023-08-20T05:14:49;13.18;;;9.27;;
37945;SDS011;23769;52.478;13.448;2023-08-20T05:17:17;10.82;;;9.00;;
37945;SDS011;23769;52.478;13.448;2023-08-20T05:19:44;10.63;;;9.50;;
37945;SDS011;23769;52.478;13.448;2023-08-20T05:22:12;9.55;;;8.13;;
37945;SDS011;23769;52.478;13.448;2023-08-20T05:24:39;9.18;;;7.43;;
37945;SDS011;23769;52.478;13.448;2023-08-20T05:27:06;10.70;;;9.57;;
37945;SDS011;23769;52.478;13.448;2023-08-20T05:29:36;10.20;;;9.13;;
37945;SDS011;23769;52.478;13.448;2023-08-20T05:32:03;10.77;;;9.50;;
37945;SDS011;23769;52.478;13.448;2023-08-20T05:34:30;10.73;;;9.40;;
37945;SDS011;23769;52.478;13.448;2023-08-20T05:36:58;10.57;;;9.57;;
37945;SDS011;23769;52.478;13.448;2023-08-20T05:39:25;11.93;;;10.82;;
37945;SDS011;23769;52.478;13.448;2023-08-20T05:41:52;12.23;;;9.55;;
37945;SDS011;23769;52.478;13.448;2023-08-20T05:44:20;9.57;;;8.40;;
37945;SDS011;23769;52.478;13.448;2023-08-20T05:46:48;10.15;;;8.75;;
37945;SDS011;23769;52.478;13.448;2023-08-20T05:49:15;10.60;;;8.75;;
37945;SDS011;23769;52.478;13.448;2023-08-20T05:51:43;12.25;;;8.93;;
37945;SDS011;23769;52.478;13.448;2023-08-20T05:54:10;9.85;;;8.70;;
37945;SDS011;23769;52.478;13.448;2023-08-20T05:56:38;11.82;;;10.63;;
37945;SDS011;23769;52.478;13.448;2023-08-20T05:59:05;10.90;;;9.00;;
37945;SDS011;23769;52.478;13.448;2023-08-20T06:01:32;11.00;;;9.35;;
37945;SDS011;23769;52.478;13.448;2023-08-20T06:04:01;11.63;;;10.02;;
37945;SDS011;23769;52.478;13.448;2023-08-20T06:06:28;12.00;;;10.43;;
37945;SDS011;23769;52.478;13.448;2023-08-20T06:08:55;13.25;;;11.07;;
37945;SDS011;23769;52.478;13.448;2023-08-20T06:11:22;10.57;;;9.45;;
37945;SDS011;23769;52.478;13.448;2023-08-20T06:13:50;13.80;;;11.85;;
37945;SDS011;23769;52.478;13.448;2023-08-20T06:16:17;12.57;;;11.38;;
37945;SDS011;23769;52.478;13.448;2023-08-20T06:18:44;15.90;;;13.90;;
37945;SDS011;23769;52.478;13.448;2023-08-20T06:21:13;16.08;;;13.50;;
37945;SDS011;23769;52.478;13.448;2023-08-20T06:23:41;15.38;;;13.52;;
37945;SDS011;23769;52.478;13.448;2023-08-20T06:26:08;15.65;;;13.93;;
37945;SDS011;23769;52.478;13.448;2023-08-20T06:28:35;14.90;;;13.18;;
37945;SDS011;23769;52.478;13.448;2023-08-20T06:31:02;15.82;;;12.25;;
37945;SDS011;23769;52.478;13.448;2023-08-20T06:33:29;13.23;;;11.88;;
37945;SDS011;23769;52.478;13.448;2023-08-20T06:35:57;13.77;;;11.88;;
37945;SDS011;23769;52.478;13.448;2023-08-20T06:38:28;13.98;;;12.45;;
37945;SDS011;23769;52.478;13.448;2023-08-20T06:40:55;14.45;;;12.10;;
37945;SDS011;23769;52.478;13.448;2023-08-20T06:43:23;15.93;;;12.52;;
37945;SDS011;23769;52.478;13.448;2023-08-20T06:45:50;13.07;;;10.23;;
37945;SDS011;23769;52.478;13.448;2023-08-20T06:48:17;15.75;;;12.52;;
37945;SDS011;23769;52.478;13.448;2023-08-20T06:50:45;12.80;;;11.13;;
37945;SDS011;23769;52.478;13.448;2023-08-20T06:53:12;16.00;;;13.60;;
37945;SDS011;23769;52.478;13.448;2023-08-20T06:55:41;18.35;;;13.73;;
37945;SDS011;23769;52.478;13.448;2023-08-20T06:58:08;14.18;;;12.57;;
37945;SDS011;23769;52.478;13.448;2023-08-20T07:00:36;14.20;;;12.80;;
37945;SDS011;23769;52.478;13.448;2023-08-20T07:03:03;13.85;;;12.27;;
37945;SDS011;23769;52.478;13.448;2023-08-20T07:05:31;18.10;;;12.93;;
37945;SDS011;23769;52.478;13.448;2023-08-20T07:07:58;14.65;;;12.57;;
37945;SDS011;23769;52.478;13.448;2023-08-20T07:10:25;14.73;;;11.63;;
37945;SDS011;23769;52.478;13.448;2023-08-20T07:12:54;16.30;;;14.18;;
37945;SDS011;23769;52.478;13.448;2023-08-20T07:15:21;20.00;;;12.93;;
37945;SDS011;23769;52.478;13.448;2023-08-20T07:17:48;12.98;;;11.68;;
37945;SDS011;23769;52.478;13.448;2023-08-20T07:20:16;16.38;;;13.50;;
37945;SDS011;23769;52.478;13.448;2023-08-20T07:22:43;11.75;;;10.57;;
37945;SDS011;23769;52.478;13.448;2023-08-20T07:25:10;12.48;;;10.95;;
37945;SDS011;23769;52.478;13.448;2023-08-20T07:27:38;12.98;;;10.10;;
37945;SDS011;23769;52.478;13.448;2023-08-20T07:30:10;11.23;;;9.45;;
37945;SDS011;23769;52.478;13.448;2023-08-20T07:32:37;14.25;;;12.00;;
37945;SDS011;23769;52.478;13.448;2023-08-20T07:35:05;16.58;;;13.57;;
37945;SDS011;23769;52.478;13.448;2023-08-20T07:37:32;13.57;;;11.27;;
37945;SDS011;23769;52.478;13.448;2023-08-20T07:39:59;12.93;;;10.85;;
37945;SDS011;23769;52.478;13.448;2023-08-20T07:42:27;12.02;;;10.80;;
37945;SDS011;23769;52.478;13.448;2023-08-20T07:44:54;12.45;;;10.50;;
37945;SDS011;23769;52.478;13.448;2023-08-20T07:47:23;12.73;;;11.10;;
37945;SDS011;23769;52.478;13.448;2023-08-20T07:49:50;15.02;;;12.70;;
37945;SDS011;23769;52.478;13.448;2023-08-20T07:52:17;16.95;;;13.45;;
37945;SDS011;23769;52.478;13.448;2023-08-20T07:54:44;15.27;;;11.85;;
37945;SDS011;23769;52.478;13.448;2023-08-20T07:57:11;13.95;;;11.07;;
37945;SDS011;23769;52.478;13.448;2023-08-20T07:59:39;13.80;;;11.82;;
37945;SDS011;23769;52.478;13.448;2023-08-20T08:02:06;13.23;;;11.82;;
37945;SDS011;23769;52.478;13.448;2023-08-20T08:04:35;13.10;;;10.88;;
37945;SDS011;23769;52.478;13.448;2023-08-20T08:07:03;12.05;;;10.43;;
37945;SDS011;23769;52.478;13.448;2023-08-20T08:09:30;12.68;;;11.30;;
37945;SDS011;23769;52.478;13.448;2023-08-20T08:11:58;13.75;;;10.70;;
37945;SDS011;23769;52.478;13.448;2023-08-20T08:14:25;11.85;;;10.50;;
37945;SDS011;23769;52.478;13.448;2023-08-20T08:16:53;12.73;;;10.18;;
37945;SDS011;23769;52.478;13.448;2023-08-20T08:19:20;12.88;;;10.77;;
37945;SDS011;23769;52.478;13.448;2023-08-20T08:21:51;12.48;;;10.73;;
37945;SDS011;23769;52.478;13.448;2023-08-20T08:24:18;12.45;;;10.57;;
37945;SDS011;23769;52.478;13.448;2023-08-20T08:26:45;20.52;;;12.68;;
37945;SDS011;23769;52.478;13.448;2023-08-20T08:29:13;11.90;;;10.70;;
37945;SDS011;23769;52.478;13.448;2023-08-20T08:31:40;14.02;;;11.18;;
37945;SDS011;23769;52.478;13.448;2023-08-20T08:34:07;14.30;;;11.48;;
37945;SDS011;23769;52.478;13.448;2023-08-20T08:36:34;13.00;;;11.70;;
37945;SDS011;23769;52.478;13.448;2023-08-20T08:39:03;11.57;;;9.93;;
37945;SDS011;23769;52.478;13.448;2023-08-20T08:41:32;14.30;;;11.52;;
37945;SDS011;23769;52.478;13.448;2023-08-20T08:44:02;13.18;;;10.90;;
37945;SDS011;23769;52.478;13.448;2023-08-20T08:46:29;12.88;;;10.68;;
37945;SDS011;23769;52.478;13.448;2023-08-20T08:48:57;10.15;;;8.50;;
37945;SDS011;23769;52.478;13.448;2023-08-20T08:51:24;9.50;;;8.52;;
37945;SDS011;23769;52.478;13.448;2023-08-20T08:53:52;10.75;;;9.43;;
37945;SDS011;23769;52.478;13.448;2023-08-20T08:56:21;10.82;;;9.82;;
37945;SDS011;23769;52.478;13.448;2023-08-20T08:58:48;9.32;;;8.38;;
37945;SDS011;23769;52.478;13.448;2023-08-20T09:01:16;9.25;;;8.25;;
37945;SDS011;23769;52.478;13.448;2023-08-20T09:03:43;8.88;;;7.35;;
37945;SDS011;23769;52.478;13.448;2023-08-20T09:06:10;8.88;;;7.97;;
37945;SDS011;23769;52.478;13.448;2023-08-20T09:08:37;8.10;;;7.28;;
37945;SDS011;23769;52.478;13.448;2023-08-20T09:11:08;9.02;;;8.10;;
37945;SDS011;23769;52.478;13.448;2023-08-20T09:13:36;8.23;;;7.35;;
37945;SDS011;23769;52.478;13.448;2023-08-20T09:16:04;8.55;;;7.10;;
37945;SDS011;23769;52.478;13.448;2023-08-20T09:18:32;8.18;;;7.10;;
37945;SDS011;23769;52.478;13.448;2023-08-20T09:21:05;9.30;;;7.38;;
37945;SDS011;23769;52.478;13.448;2023-08-20T09:23:33;9.07;;;7.47;;
37945;SDS011;23769;52.478;13.448;2023-08-20T09:26:01;8.20;;;7.28;;
37945;SDS011;23769;52.478;13.448;2023-08-20T09:28:28;9.15;;;7.53;;
37945;SDS011;23769;52.478;13.448;2023-08-20T09:30:58;7.40;;;6.70;;
37945;SDS011;23769;52.478;13.448;2023-08-20T09:33:26;7.68;;;6.88;;
37945;SDS011;23769;52.478;13.448;2023-08-20T09:35:54;8.27;;;6.10;;
37945;SDS011;23769;52.478;13.448;2023-08-20T09:38:22;6.90;;;6.20;;
37945;SDS011;23769;52.478;13.448;2023-08-20T09:40:50;7.32;;;6.43;;
37945;SDS011;23769;52.478;13.448;2023-08-20T09:43:17;8.05;;;6.25;;
37945;SDS011;23769;52.478;13.448;2023-08-20T09:45:45;7.35;;;6.57;;
37945;SDS011;23769;52.478;13.448;2023-08-20T09:48:14;8.10;;;7.05;;
37945;SDS011;23769;52.478;13.448;2023-08-20T09:50:44;8.02;;;5.15;;
37945;SDS011;23769;52.478;13.448;2023-08-20T09:53:16;7.40;;;6.07;;
37945;SDS011;23769;52.478;13.448;2023-08-20T09:55:45;6.90;;;5.68;;
37945;SDS011;23769;52.478;13.448;2023-08-20T09:58:13;6.30;;;5.68;;
37945;SDS011;23769;52.478;13.448;2023-08-20T10:00:41;7.43;;;5.65;;
37945;SDS011;23769;52.478;13.448;2023-08-20T10:03:09;5.57;;;5.00;;
37945;SDS011;23769;52.478;13.448;2023-08-20T10:05:37;8.38;;;5.55;;
37945;SDS011;23769;52.478;13.448;2023-08-20T10:08:05;6.60;;;5.20;;
37945;SDS011;23769;52.478;13.448;2023-08-20T10:10:33;7.50;;;5.22;;
37945;SDS011;23769;52.478;13.448;2023-08-20T10:13:00;6.07;;;4.63;;
37945;SDS011;23769;52.478;13.448;2023-08-20T10:15:28;6.03;;;4.03;;
37945;SDS011;23769;52.478;13.448;2023-08-20T10:17:57;9.55;;;4.82;;
37945;SDS011;23769;52.478;13.448;2023-08-20T10:20:24;4.72;;;4.03;;
37945;SDS011;23769;52.478;13.448;2023-08-20T10:22:59;4.50;;;3.67;;
37945;SDS011;23769;52.478;13.448;2023-08-20T10:25:27;5.60;;;3.85;;
37945;SDS011;23769;52.478;13.448;2023-08-20T10:28:11;5.90;;;4.72;;
37945;SDS011;23769;52.478;13.448;2023-08-20T10:30:39;4.32;;;3.75;;
37945;SDS011;23769;52.478;13.448;2023-08-20T10:33:26;5.55;;;3.92;;
37945;SDS011;23769;52.478;13.448;2023-08-20T10:35:53;4.55;;;3.85;;
37945;SDS011;23769;52.478;13.448;2023-08-20T10:38:22;4.60;;;3.85;;
37945;SDS011;23769;52.478;13.448;2023-08-20T10:40:53;5.65;;;4.88;;
37945;SDS011;23769;52.478;13.448;2023-08-20T10:43:27;5.40;;;3.55;;
37945;SDS011;23769;52.478;13.448;2023-08-20T10:46:04;6.80;;;3.45;;
37945;SDS011;23769;52.478;13.448;2023-08-20T10:48:31;4.07;;;3.17;;
37945;SDS011;23769;52.478;13.448;2023-08-20T10:51:12;3.78;;;2.92;;
37945;SDS011;23769;52.478;13.448;2023-08-20T10:53:41;4.93;;;3.83;;
37945;SDS011;23769;52.478;13.448;2023-08-20T10:56:12;5.40;;;3.30;;
37945;SDS011;23769;52.478;13.448;2023-08-20T10:58:43;3.72;;;2.80;;
37945;SDS011;23769;52.478;13.448;2023-08-20T11:01:20;7.78;;;5.13;;
37945;SDS011;23769;52.478;13.448;2023-08-20T11:03:48;5.43;;;2.88;;
37945;SDS011;23769;52.478;13.448;2023-08-20T11:06:16;4.90;;;3.05;;
37945;SDS011;23769;52.478;13.448;2023-08-20T11:08:45;5.03;;;4.03;;
37945;SDS011;23769;52.478;13.448;2023-08-20T11:11:12;5.70;;;5.10;;
37945;SDS011;23769;52.478;13.448;2023-08-20T11:13:40;5.03;;;3.67;;
37945;SDS011;23769;52.478;13.448;2023-08-20T11:16:08;4.47;;;3.55;;
37945;SDS011;23769;52.478;13.448;2023-08-20T11:18:35;3.58;;;2.75;;
37945;SDS011;23769;52.478;13.448;2023-08-20T11:21:03;3.97;;;2.65;;
37945;SDS011;23769;52.478;13.448;2023-08-20T11:23:32;3.45;;;2.72;;
37945;SDS011;23769;52.478;13.448;2023-08-20T11:26:01;4.75;;;2.72;;
37945;SDS011;23769;52.478;13.448;2023-08-20T11:28:28;2.45;;;2.20;;
37945;SDS011;23769;52.478;13.448;2023-08-20T11:30:56;4.65;;;2.75;;
37945;SDS011;23769;52.478;13.448;2023-08-20T11:33:23;4.35;;;2.90;;
37945;SDS011;23769;52.478;13.448;2023-08-20T11:35:51;2.97;;;2.45;;
37945;SDS011;23769;52.478;13.448;2023-08-20T11:38:20;4.43;;;2.88;;
37945;SDS011;23769;52.478;13.448;2023-08-20T11:40:47;6.32;;;3.42;;
37945;SDS011;23769;52.478;13.448;2023-08-20T11:43:16;3.33;;;2.70;;
37945;SDS011;23769;52.478;13.448;2023-08-20T11:45:44;4.88;;;2.78;;
37945;SDS011;23769;52.478;13.448;2023-08-20T11:48:13;4.55;;;2.25;;
37945;SDS011;23769;52.478;13.448;2023-08-20T11:50:41;4.40;;;3.28;;
37945;SDS011;23769;52.478;13.448;2023-08-20T11:53:08;4.32;;;2.40;;
37945;SDS011;23769;52.478;13.448;2023-08-20T11:55:37;2.63;;;1.85;;
37945;SDS011;23769;52.478;13.448;2023-08-20T11:58:04;2.67;;;2.20;;
37945;SDS011;23769;52.478;13.448;2023-08-20T12:00:33;5.55;;;3.20;;
37945;SDS011;23769;52.478;13.448;2023-08-20T12:03:01;4.55;;;3.03;;
37945;SDS011;23769;52.478;13.448;2023-08-20T12:05:29;4.57;;;2.75;;
37945;SDS011;23769;52.478;13.448;2023-08-20T12:07:57;3.45;;;2.50;;
37945;SDS011;23769;52.478;13.448;2023-08-20T12:10:24;3.33;;;2.78;;
37945;SDS011;23769;52.478;13.448;2023-08-20T12:12:53;5.65;;;3.40;;
37945;SDS011;23769;52.478;13.448;2023-08-20T12:15:21;4.30;;;3.20;;
37945;SDS011;23769;52.478;13.448;2023-08-20T12:18:00;3.90;;;2.15;;
37945;SDS011;23769;52.478;13.448;2023-08-20T12:20:29;5.65;;;3.10;;
37945;SDS011;23769;52.478;13.448;2023-08-20T12:23:00;5.03;;;2.83;;
37945;SDS011;23769;52.478;13.448;2023-08-20T12:25:29;5.35;;;3.90;;
37945;SDS011;23769;52.478;13.448;2023-08-20T12:27:57;3.90;;;2.95;;
37945;SDS011;23769;52.478;13.448;2023-08-20T12:30:24;3.97;;;2.55;;
37945;SDS011;23769;52.478;13.448;2023-08-20T12:32:51;3.35;;;2.30;;
37945;SDS011;23769;52.478;13.448;2023-08-20T12:35:20;4.57;;;2.55;;
37945;SDS011;23769;52.478;13.448;2023-08-20T12:37:47;4.78;;;2.53;;
37945;SDS011;23769;52.478;13.448;2023-08-20T12:40:15;3.03;;;2.22;;
37945;SDS011;23769;52.478;13.448;2023-08-20T12:42:43;4.00;;;2.45;;
37945;SDS011;23769;52.478;13.448;2023-08-20T12:45:10;3.17;;;2.38;;
37945;SDS011;23769;52.478;13.448;2023-08-20T12:47:38;4.45;;;2.78;;
37945;SDS011;23769;52.478;13.448;2023-08-20T12:50:06;3.05;;;2.35;;
37945;SDS011;23769;52.478;13.448;2023-08-20T12:52:34;3.35;;;2.25;;
37945;SDS011;23769;52.478;13.448;2023-08-20T12:55:02;2.90;;;2.35;;
37945;SDS011;23769;52.478;13.448;2023-08-20T12:57:29;2.92;;;2.00;;
37945;SDS011;23769;52.478;13.448;2023-08-20T12:59:56;5.18;;;2.33;;
37945;SDS011;23769;52.478;13.448;2023-08-20T13:02:24;3.67;;;2.33;;
37945;SDS011;23769;52.478;13.448;2023-08-20T13:04:52;3.63;;;2.55;;
37945;SDS011;23769;52.478;13.448;2023-08-20T13:07:19;4.75;;;2.25;;
37945;SDS011;23769;52.478;13.448;2023-08-20T13:09:48;3.00;;;1.88;;
37945;SDS011;23769;52.478;13.448;2023-08-20T13:12:16;5.30;;;4.60;;
37945;SDS011;23769;52.478;13.448;2023-08-20T13:14:45;4.45;;;3.13;;
37945;SDS011;23769;52.478;13.448;2023-08-20T13:17:13;4.78;;;3.25;;
37945;SDS011;23769;52.478;13.448;2023-08-20T13:19:40;3.17;;;2.33;;
37945;SDS011;23769;52.478;13.448;2023-08-20T13:22:07;2.75;;;1.65;;
37945;SDS011;23769;52.478;13.448;2023-08-20T13:24:35;3.10;;;1.75;;
37945;SDS011;23769;52.478;13.448;2023-08-20T13:27:03;3.75;;;2.13;;
37945;SDS011;23769;52.478;13.448;2023-08-20T13:29:31;4.43;;;3.00;;
37945;SDS011;23769;52.478;13.448;2023-08-20T13:31:58;3.60;;;1.73;;
37945;SDS011;23769;52.478;13.448;2023-08-20T13:34:25;2.65;;;1.80;;
37945;SDS011;23769;52.478;13.448;2023-08-20T13:36:53;4.28;;;2.50;;
37945;SDS011;23769;52.478;13.448;2023-08-20T13:39:20;5.47;;;2.40;;
37945;SDS011;23769;52.478;13.448;2023-08-20T13:41:48;4.15;;;1.92;;
37945;SDS011;23769;52.478;13.448;2023-08-20T13:44:19;4.60;;;2.97;;
37945;SDS011;23769;52.478;13.448;2023-08-20T13:46:46;3.17;;;1.95;;
37945;SDS011;23769;52.478;13.448;2023-08-20T13:49:14;2.42;;;1.55;;
37945;SDS011;23769;52.478;13.448;2023-08-20T13:51:41;2.53;;;1.70;;
37945;SDS011;23769;52.478;13.448;2023-08-20T13:54:08;3.38;;;2.30;;
37945;SDS011;23769;52.478;13.448;2023-08-20T13:56:36;3.78;;;1.90;;
37945;SDS011;23769;52.478;13.448;2023-08-20T13:59:03;2.65;;;1.48;;
37945;SDS011;23769;52.478;13.448;2023-08-20T14:01:32;2.75;;;1.70;;
37945;SDS011;23769;52.478;13.448;2023-08-20T14:04:00;3.20;;;1.77;;
37945;SDS011;23769;52.478;13.448;2023-08-20T14:06:27;3.47;;;2.33;;
37945;SDS011;23769;52.478;13.448;2023-08-20T14:08:55;4.18;;;2.20;;
37945;SDS011;23769;52.478;13.448;2023-08-20T14:11:22;2.72;;;1.98;;
37945;SDS011;23769;52.478;13.448;2023-08-20T14:13:50;6.88;;;3.35;;
37945;SDS011;23769;52.478;13.448;2023-08-20T14:16:18;3.70;;;1.90;;
37945;SDS011;23769;52.478;13.448;2023-08-20T14:18:46;3.80;;;2.13;;
37945;SDS011;23769;52.478;13.448;2023-08-20T14:21:23;5.05;;;2.78;;
37945;SDS011;23769;52.478;13.448;2023-08-20T14:23:50;5.60;;;2.00;;